createdAt,value
2017-06-21T00:00:54.756Z,27.19
2017-06-21T00:02:04.988Z,27.14
2017-06-21T00:03:14.767Z,27.09
2017-06-21T00:04:25.002Z,27.06
2017-06-21T00:05:34.624Z,27.18
2017-06-21T00:06:44.535Z,27.21
2017-06-21T00:07:54.154Z,27.17
2017-06-21T00:09:03.931Z,27.1
2017-06-21T00:10:13.860Z,27.1
2017-06-21T00:11:24.086Z,27.12
2017-06-21T00:12:34.007Z,27.04
2017-06-21T00:13:43.614Z,27.04
2017-06-21T00:14:53.940Z,27.09
2017-06-21T00:16:03.539Z,27.03
2017-06-21T00:17:13.456Z,27.03
2017-06-21T00:18:23.054Z,26.95
2017-06-21T00:19:32.669Z,27.02
2017-06-21T00:20:42.287Z,26.91
2017-06-21T00:21:52.212Z,26.94
2017-06-21T00:23:02.449Z,26.95
2017-06-21T00:24:12.382Z,26.95
2017-06-21T00:25:22.608Z,26.91
2017-06-21T00:26:32.688Z,26.87
2017-06-21T00:27:42.941Z,26.84
2017-06-21T00:28:52.537Z,26.84
2017-06-21T00:30:02.147Z,26.82
2017-06-21T00:31:12.365Z,26.85
2017-06-21T00:32:22.428Z,26.87
2017-06-21T00:33:32.643Z,26.85
2017-06-21T00:34:42.254Z,26.87
2017-06-21T00:35:51.547Z,26.82
2017-06-21T00:37:01.459Z,26.89
2017-06-21T00:38:11.672Z,26.88
2017-06-21T00:39:21.275Z,26.76
2017-06-21T00:40:31.193Z,26.76
2017-06-21T00:41:41.415Z,26.75
2017-06-21T00:42:50.411Z,26.75
2017-06-21T00:44:00.126Z,26.82
2017-06-21T00:45:10.085Z,26.73
2017-06-21T00:46:20.011Z,26.73
2017-06-21T00:47:30.258Z,26.76
2017-06-21T00:48:40.494Z,26.81
2017-06-21T00:49:50.501Z,26.75
2017-06-21T00:51:00.463Z,26.65
2017-06-21T00:52:10.392Z,26.65
2017-06-21T00:53:20.307Z,26.67
2017-06-21T00:54:30.531Z,26.63
2017-06-21T00:55:39.982Z,26.62
2017-06-21T00:56:50.215Z,26.65
2017-06-21T00:58:00.137Z,26.63
2017-06-21T00:59:10.393Z,26.63
2017-06-21T01:00:20.311Z,26.66
2017-06-21T01:01:30.707Z,26.62
2017-06-21T01:02:40.310Z,26.6
2017-06-21T01:03:50.534Z,26.57
2017-06-21T01:05:00.455Z,26.51
2017-06-21T01:06:10.374Z,26.54
2017-06-21T01:07:20.147Z,26.57
2017-06-21T01:08:30.053Z,26.43
2017-06-21T01:09:39.963Z,26.43
2017-06-21T01:10:50.199Z,26.43
2017-06-21T01:12:00.114Z,26.44
2017-06-21T01:13:10.169Z,26.44
2017-06-21T01:14:20.764Z,26.48
2017-06-21T01:15:30.667Z,26.48
2017-06-21T01:16:40.898Z,26.37
2017-06-21T01:17:50.507Z,26.43
2017-06-21T01:19:00.447Z,26.47
2017-06-21T01:20:10.057Z,26.37
2017-06-21T01:21:20.652Z,26.44
2017-06-21T01:22:30.875Z,26.47
2017-06-21T01:23:41.116Z,26.43
2017-06-21T01:24:51.079Z,26.44
2017-06-21T01:26:00.986Z,26.44
2017-06-21T01:27:10.901Z,26.47
2017-06-21T01:28:20.836Z,26.44
2017-06-21T01:29:30.758Z,26.4
2017-06-21T01:30:40.607Z,26.43
2017-06-21T01:31:50.859Z,26.4
2017-06-21T01:33:01.069Z,26.36
2017-06-21T01:34:10.668Z,26.29
2017-06-21T01:35:20.303Z,26.26
2017-06-21T01:36:30.671Z,26.33
2017-06-21T01:37:40.586Z,26.33
2017-06-21T01:38:49.894Z,26.32
2017-06-21T01:39:59.842Z,26.33
2017-06-21T01:41:09.142Z,26.28
2017-06-21T01:42:19.099Z,26.35
2017-06-21T01:43:29.318Z,26.36
2017-06-21T01:44:39.221Z,26.28
2017-06-21T01:45:49.428Z,26.25
2017-06-21T01:46:59.360Z,26.28
2017-06-21T01:48:09.329Z,26.29
2017-06-21T01:49:18.946Z,26.36
2017-06-21T01:50:28.870Z,26.23
2017-06-21T01:51:38.523Z,26.29
2017-06-21T01:52:47.835Z,26.28
2017-06-21T01:53:57.599Z,26.26
2017-06-21T01:55:07.217Z,26.26
2017-06-21T01:56:17.123Z,26.17
2017-06-21T01:57:27.039Z,26.25
2017-06-21T01:58:36.649Z,26.28
2017-06-21T01:59:46.417Z,26.28
2017-06-21T02:00:56.335Z,26.26
2017-06-21T02:02:06.257Z,26.18
2017-06-21T02:03:16.178Z,26.1
2017-06-21T02:04:25.781Z,26.18
2017-06-21T02:05:35.385Z,26.2
2017-06-21T02:06:44.982Z,26.17
2017-06-21T02:07:54.900Z,26.21
2017-06-21T02:09:04.506Z,26.25
2017-06-21T02:10:14.127Z,26.1
2017-06-21T02:11:24.038Z,26.09
2017-06-21T02:12:34.259Z,26.12
2017-06-21T02:13:43.876Z,26.13
2017-06-21T02:14:53.787Z,26.17
2017-06-21T02:16:03.708Z,25.92
2017-06-21T02:17:13.459Z,26.05
2017-06-21T02:18:22.776Z,25.92
2017-06-21T02:19:33.001Z,25.9
2017-06-21T02:20:42.616Z,25.95
2017-06-21T02:21:52.840Z,25.94
2017-06-21T02:23:03.111Z,25.94
2017-06-21T02:24:13.027Z,25.92
2017-06-21T02:25:22.668Z,25.9
2017-06-21T02:26:32.581Z,25.8
2017-06-21T02:27:42.805Z,25.82
2017-06-21T02:28:51.802Z,25.79
2017-06-21T02:30:02.027Z,25.76
2017-06-21T02:31:12.276Z,25.85
2017-06-21T02:32:21.590Z,25.73
2017-06-21T02:33:31.809Z,25.76
2017-06-21T02:34:42.037Z,25.79
2017-06-21T02:35:51.988Z,25.75
2017-06-21T02:37:01.914Z,25.72
2017-06-21T02:38:11.222Z,25.64
2017-06-21T02:39:21.138Z,25.69
2017-06-21T02:40:30.845Z,25.64
2017-06-21T02:41:40.452Z,25.64
2017-06-21T02:42:50.662Z,25.64
2017-06-21T02:44:00.570Z,25.64
2017-06-21T02:45:10.175Z,25.61
2017-06-21T02:46:20.241Z,25.7
2017-06-21T02:47:29.852Z,25.73
2017-06-21T02:48:39.457Z,25.67
2017-06-21T02:49:49.359Z,25.62
2017-06-21T02:50:59.585Z,25.65
2017-06-21T02:52:09.652Z,25.64
2017-06-21T02:53:19.881Z,25.7
2017-06-21T02:54:29.482Z,25.69
2017-06-21T02:55:39.393Z,25.65
2017-06-21T02:56:49.605Z,25.72
2017-06-21T02:57:58.900Z,25.7
2017-06-21T02:59:09.110Z,25.69
2017-06-21T03:00:19.030Z,25.75
2017-06-21T03:01:28.631Z,25.72
2017-06-21T03:02:38.557Z,25.67
2017-06-21T03:03:48.207Z,25.6
2017-06-21T03:04:58.434Z,25.58
2017-06-21T03:06:08.055Z,25.65
2017-06-21T03:07:18.278Z,25.58
2017-06-21T03:08:28.505Z,25.58
2017-06-21T03:09:38.523Z,25.61
2017-06-21T03:10:47.819Z,25.61
2017-06-21T03:11:57.734Z,25.58
2017-06-21T03:13:07.954Z,25.62
2017-06-21T03:14:17.866Z,25.52
2017-06-21T03:15:27.919Z,25.55
2017-06-21T03:16:37.869Z,25.55
2017-06-21T03:17:48.095Z,25.55
2017-06-21T03:18:58.309Z,25.6
2017-06-21T03:20:08.542Z,25.43
2017-06-21T03:21:18.209Z,25.47
2017-06-21T03:22:28.428Z,25.46
2017-06-21T03:23:38.340Z,25.54
2017-06-21T03:24:48.558Z,25.42
2017-06-21T03:25:58.797Z,25.5
2017-06-21T03:27:08.781Z,25.51
2017-06-21T03:28:18.696Z,25.51
2017-06-21T03:29:28.603Z,25.46
2017-06-21T03:30:38.861Z,25.5
2017-06-21T03:31:49.082Z,25.52
2017-06-21T03:32:58.990Z,25.46
2017-06-21T03:34:08.907Z,25.4
2017-06-21T03:35:18.808Z,25.33
2017-06-21T03:36:28.414Z,25.4
2017-06-21T03:37:38.031Z,25.43
2017-06-21T03:38:48.250Z,25.4
2017-06-21T03:39:57.858Z,25.45
2017-06-21T03:41:07.461Z,25.38
2017-06-21T03:42:17.371Z,25.36
2017-06-21T03:43:27.281Z,25.46
2017-06-21T03:44:37.651Z,25.33
2017-06-21T03:45:47.260Z,25.51
2017-06-21T03:46:57.485Z,25.46
2017-06-21T03:48:07.751Z,25.47
2017-06-21T03:49:17.347Z,25.52
2017-06-21T03:50:27.706Z,25.47
2017-06-21T03:51:37.615Z,25.54
2017-06-21T03:52:47.542Z,25.55
2017-06-21T03:53:57.457Z,25.5
2017-06-21T03:55:07.378Z,25.46
2017-06-21T03:56:16.983Z,25.5
2017-06-21T03:57:27.201Z,25.5
2017-06-21T03:58:36.808Z,25.51
2017-06-21T03:59:46.105Z,25.45
2017-06-21T04:00:55.737Z,25.4
2017-06-21T04:02:06.153Z,25.39
2017-06-21T04:03:16.093Z,25.4
2017-06-21T04:04:26.306Z,25.36
2017-06-21T04:05:36.542Z,25.35
2017-06-21T04:06:46.162Z,25.25
2017-06-21T04:07:55.923Z,25.32
2017-06-21T04:09:05.826Z,25.27
2017-06-21T04:10:15.739Z,25.33
2017-06-21T04:11:26.329Z,25.24
2017-06-21T04:12:36.543Z,25.21
2017-06-21T04:13:46.548Z,25.23
2017-06-21T04:14:56.799Z,25.24
2017-06-21T04:16:06.718Z,25.23
2017-06-21T04:17:16.347Z,25.27
2017-06-21T04:18:26.562Z,25.39
2017-06-21T04:19:36.188Z,25.45
2017-06-21T04:20:46.108Z,25.33
2017-06-21T04:21:56.012Z,25.32
2017-06-21T04:23:05.620Z,25.36
2017-06-21T04:24:15.597Z,25.47
2017-06-21T04:25:25.973Z,25.51
2017-06-21T04:26:35.881Z,25.51
2017-06-21T04:27:45.800Z,25.54
2017-06-21T04:28:55.717Z,25.57
2017-06-21T04:30:05.318Z,25.57
2017-06-21T04:31:15.073Z,25.65
2017-06-21T04:32:24.992Z,25.65
2017-06-21T04:33:34.910Z,25.64
2017-06-21T04:34:44.828Z,25.7
2017-06-21T04:35:55.049Z,25.72
2017-06-21T04:37:05.310Z,25.72
2017-06-21T04:38:14.911Z,25.79
2017-06-21T04:39:24.214Z,25.82
2017-06-21T04:40:33.522Z,25.8
2017-06-21T04:41:43.448Z,25.82
2017-06-21T04:42:53.380Z,25.85
2017-06-21T04:44:02.682Z,25.92
2017-06-21T04:45:12.596Z,25.92
2017-06-21T04:46:22.881Z,25.87
2017-06-21T04:47:32.495Z,25.97
2017-06-21T04:48:42.901Z,25.88
2017-06-21T04:49:52.839Z,25.92
2017-06-21T04:51:02.758Z,25.91
2017-06-21T04:52:12.979Z,25.91
2017-06-21T04:53:22.577Z,25.88
2017-06-21T04:54:32.641Z,25.94
2017-06-21T04:55:42.864Z,25.88
2017-06-21T04:56:53.081Z,25.94
2017-06-21T04:58:03.014Z,25.92
2017-06-21T04:59:12.620Z,25.99
2017-06-21T05:00:22.373Z,25.99
2017-06-21T05:01:32.312Z,25.98
2017-06-21T05:02:41.912Z,25.95
2017-06-21T05:03:51.829Z,26.09
2017-06-21T05:05:02.051Z,26.1
2017-06-21T05:06:11.974Z,26.25
2017-06-21T05:07:21.885Z,26.33
2017-06-21T05:08:31.809Z,26.37
2017-06-21T05:09:41.452Z,26.37
2017-06-21T05:10:51.372Z,26.44
2017-06-21T05:12:01.434Z,26.54
2017-06-21T05:13:11.028Z,26.62
2017-06-21T05:14:20.954Z,26.62
2017-06-21T05:15:30.866Z,26.7
2017-06-21T05:16:40.789Z,26.76
2017-06-21T05:17:50.854Z,26.81
2017-06-21T05:19:00.765Z,26.85
2017-06-21T05:20:10.671Z,26.81
2017-06-21T05:21:20.901Z,26.99
2017-06-21T05:22:30.519Z,26.97
2017-06-21T05:23:40.834Z,27.06
2017-06-21T05:24:50.472Z,27.21
2017-06-21T05:26:00.415Z,27.18
2017-06-21T05:27:10.353Z,27.25
2017-06-21T05:28:20.295Z,27.36
2017-06-21T05:29:30.227Z,27.36
2017-06-21T05:30:39.879Z,27.47
2017-06-21T05:31:50.125Z,27.62
2017-06-21T05:32:59.736Z,27.65
2017-06-21T05:34:09.693Z,27.74
2017-06-21T05:35:19.413Z,27.84
2017-06-21T05:36:29.641Z,27.88
2017-06-21T05:37:39.599Z,27.99
2017-06-21T05:38:49.228Z,27.97
2017-06-21T05:39:58.222Z,28.12
2017-06-21T05:41:07.982Z,28.12
2017-06-21T05:42:18.209Z,28.22
2017-06-21T05:43:27.824Z,28.29
2017-06-21T05:44:38.058Z,28.36
2017-06-21T05:45:48.324Z,28.41
2017-06-21T05:46:58.108Z,28.54
2017-06-21T05:48:07.708Z,28.61
2017-06-21T05:49:17.654Z,28.73
2017-06-21T05:50:27.584Z,28.7
2017-06-21T05:51:37.821Z,28.77
2017-06-21T05:52:47.747Z,28.85
2017-06-21T05:53:58.005Z,28.88
2017-06-21T05:55:07.947Z,28.93
2017-06-21T05:56:17.581Z,28.93
2017-06-21T05:57:27.815Z,29.02
2017-06-21T05:58:37.719Z,28.92
2017-06-21T05:59:47.335Z,28.96
2017-06-21T06:00:57.558Z,28.95
2017-06-21T06:02:07.794Z,28.98
2017-06-21T06:03:17.723Z,28.93
2017-06-21T06:04:28.008Z,29
2017-06-21T06:05:37.945Z,29
2017-06-21T06:06:47.551Z,29.15
2017-06-21T06:07:57.766Z,29.09
2017-06-21T06:09:07.378Z,29.16
2017-06-21T06:10:16.987Z,29.23
2017-06-21T06:11:26.617Z,29.24
2017-06-21T06:12:36.836Z,29.24
2017-06-21T06:13:47.072Z,29.33
2017-06-21T06:14:56.996Z,29.3
2017-06-21T06:16:07.279Z,29.41
2017-06-21T06:17:17.205Z,29.43
2017-06-21T06:18:27.133Z,29.46
2017-06-21T06:19:37.083Z,29.55
2017-06-21T06:20:47.319Z,29.53
2017-06-21T06:21:56.696Z,29.68
2017-06-21T06:23:06.920Z,29.65
2017-06-21T06:24:17.144Z,29.63
2017-06-21T06:25:26.758Z,29.67
2017-06-21T06:26:36.068Z,29.78
2017-06-21T06:27:46.085Z,29.83
2017-06-21T06:28:56.307Z,29.94
2017-06-21T06:30:06.232Z,29.89
2017-06-21T06:31:16.455Z,30
2017-06-21T06:32:26.377Z,30.02
2017-06-21T06:33:36.292Z,30.05
2017-06-21T06:34:46.533Z,30.17
2017-06-21T06:35:56.464Z,30.19
2017-06-21T06:37:06.383Z,30.15
2017-06-21T06:38:16.316Z,30.27
2017-06-21T06:39:26.699Z,30.34
2017-06-21T06:40:36.625Z,30.29
2017-06-21T06:41:46.847Z,30.29
2017-06-21T06:42:56.163Z,30.32
2017-06-21T06:44:05.794Z,30.39
2017-06-21T06:45:15.773Z,30.45
2017-06-21T06:46:25.380Z,30.49
2017-06-21T06:47:34.994Z,30.49
2017-06-21T06:48:44.606Z,30.53
2017-06-21T06:49:54.833Z,30.55
2017-06-21T06:51:05.203Z,30.69
2017-06-21T06:52:15.443Z,30.67
2017-06-21T06:53:25.383Z,30.69
2017-06-21T06:54:35.309Z,30.69
2017-06-21T06:55:45.293Z,30.67
2017-06-21T06:56:55.621Z,30.77
2017-06-21T06:58:05.844Z,30.86
2017-06-21T06:59:15.760Z,30.89
2017-06-21T07:00:25.694Z,30.89
2017-06-21T07:01:35.619Z,30.86
2017-06-21T07:02:45.337Z,30.97
2017-06-21T07:03:54.970Z,30.95
2017-06-21T07:05:04.641Z,31.04
2017-06-21T07:06:14.825Z,31.12
2017-06-21T07:07:24.749Z,31.25
2017-06-21T07:08:34.504Z,31.31
2017-06-21T07:09:44.435Z,31.36
2017-06-21T07:10:54.363Z,31.46
2017-06-21T07:12:04.292Z,31.62
2017-06-21T07:13:13.969Z,31.63
2017-06-21T07:14:23.743Z,31.75
2017-06-21T07:15:33.360Z,31.8
2017-06-21T07:16:43.044Z,32.01
2017-06-21T07:17:52.666Z,32.1
2017-06-21T07:19:02.890Z,32.14
2017-06-21T07:20:12.968Z,32.29
2017-06-21T07:21:23.214Z,32.43
2017-06-21T07:22:32.840Z,32.48
2017-06-21T07:23:42.768Z,32.6
2017-06-21T07:24:52.686Z,32.65
2017-06-21T07:26:02.757Z,32.65
2017-06-21T07:27:12.392Z,32.77
2017-06-21T07:28:22.341Z,32.78
2017-06-21T07:29:32.589Z,32.82
2017-06-21T07:30:42.538Z,32.93
2017-06-21T07:31:52.572Z,32.92
2017-06-21T07:33:02.800Z,32.92
2017-06-21T07:34:12.742Z,33.03
2017-06-21T07:35:22.395Z,33.07
2017-06-21T07:36:32.312Z,33.18
2017-06-21T07:37:42.599Z,33.23
2017-06-21T07:38:52.829Z,33.31
2017-06-21T07:40:02.745Z,33.47
2017-06-21T07:41:12.364Z,33.54
2017-06-21T07:42:22.599Z,33.66
2017-06-21T07:43:33.132Z,33.69
2017-06-21T07:44:42.751Z,33.9
2017-06-21T07:45:52.671Z,34.06
2017-06-21T07:47:01.979Z,34.3
2017-06-21T07:48:11.302Z,34.4
2017-06-21T07:49:21.662Z,34.62
2017-06-21T07:50:31.898Z,34.82
2017-06-21T07:51:41.824Z,34.92
2017-06-21T07:52:51.750Z,35.16
2017-06-21T07:54:01.979Z,35.37
2017-06-21T07:55:12.007Z,35.45
2017-06-21T07:56:22.254Z,35.6
2017-06-21T07:57:32.480Z,35.82
2017-06-21T07:58:42.408Z,35.8
2017-06-21T07:59:51.715Z,36.07
2017-06-21T08:01:01.475Z,36.19
2017-06-21T08:02:11.708Z,36.28
2017-06-21T08:03:21.629Z,36.5
2017-06-21T08:04:31.553Z,36.65
2017-06-21T08:05:41.784Z,36.84
2017-06-21T08:06:51.713Z,37
2017-06-21T08:08:01.625Z,37.15
2017-06-21T08:09:11.547Z,37.22
2017-06-21T08:10:21.479Z,37.43
2017-06-21T08:11:31.396Z,37.55
2017-06-21T08:12:40.846Z,37.67
2017-06-21T08:13:50.777Z,37.76
2017-06-21T08:15:00.095Z,37.97
2017-06-21T08:16:10.319Z,38
2017-06-21T08:17:20.600Z,38.16
2017-06-21T08:18:30.632Z,38.22
2017-06-21T08:19:40.914Z,38.25
2017-06-21T08:20:50.835Z,38.35
2017-06-21T08:22:00.447Z,38.42
2017-06-21T08:23:10.674Z,38.44
2017-06-21T08:24:20.653Z,38.59
2017-06-21T08:25:29.956Z,38.56
2017-06-21T08:26:39.866Z,38.6
2017-06-21T08:27:49.170Z,38.54
2017-06-21T08:28:59.099Z,38.59
2017-06-21T08:30:09.072Z,38.6
2017-06-21T08:31:18.991Z,38.6
2017-06-21T08:32:29.216Z,38.56
2017-06-21T08:33:38.842Z,38.6
2017-06-21T08:34:48.449Z,38.53
2017-06-21T08:35:58.080Z,38.56
2017-06-21T08:37:08.300Z,38.44
2017-06-21T08:38:18.217Z,38.3
2017-06-21T08:39:27.514Z,38.15
2017-06-21T08:40:37.432Z,37.89
2017-06-21T08:41:47.511Z,37.62
2017-06-21T08:42:57.142Z,37.43
2017-06-21T08:44:07.093Z,37.06
2017-06-21T08:45:17.015Z,36.8
2017-06-21T08:46:27.271Z,36.49
2017-06-21T08:47:37.609Z,36.17
2017-06-21T08:48:47.560Z,36
2017-06-21T08:49:57.496Z,35.65
2017-06-21T08:51:07.424Z,35.48
2017-06-21T08:52:17.348Z,35.28
2017-06-21T08:53:27.056Z,35.03
2017-06-21T08:54:37.286Z,34.82
2017-06-21T08:55:47.216Z,34.69
2017-06-21T08:56:56.839Z,34.53
2017-06-21T08:58:06.765Z,34.34
2017-06-21T08:59:16.683Z,34.13
2017-06-21T09:00:26.648Z,34.03
2017-06-21T09:01:36.888Z,33.79
2017-06-21T09:02:46.506Z,33.68
2017-06-21T09:03:56.431Z,33.5
2017-06-21T09:05:05.892Z,33.45
2017-06-21T09:06:15.516Z,33.35
2017-06-21T09:07:25.755Z,33.14
2017-06-21T09:08:35.990Z,33.11
2017-06-21T09:09:46.332Z,32.94
2017-06-21T09:10:56.048Z,32.93
2017-06-21T09:12:05.970Z,32.77
2017-06-21T09:13:15.897Z,32.65
2017-06-21T09:14:25.815Z,32.57
2017-06-21T09:15:35.438Z,32.41
2017-06-21T09:16:45.841Z,32.29
2017-06-21T09:17:55.453Z,32.23
2017-06-21T09:19:05.379Z,32.21
2017-06-21T09:20:15.003Z,32.13
2017-06-21T09:21:24.932Z,32.04
2017-06-21T09:22:35.169Z,32.01
2017-06-21T09:23:44.789Z,31.84
2017-06-21T09:24:54.136Z,31.81
2017-06-21T09:26:04.064Z,31.78
2017-06-21T09:27:14.295Z,31.68
2017-06-21T09:28:24.274Z,31.65
2017-06-21T09:29:34.205Z,31.58
2017-06-21T09:30:43.820Z,31.54
2017-06-21T09:31:54.052Z,31.51
2017-06-21T09:33:03.980Z,31.53
2017-06-21T09:34:14.311Z,31.38
2017-06-21T09:35:23.925Z,31.31
2017-06-21T09:36:33.838Z,31.26
2017-06-21T09:37:43.441Z,31.31
2017-06-21T09:38:53.363Z,31.25
2017-06-21T09:40:03.291Z,31.17
2017-06-21T09:41:13.521Z,31.1
2017-06-21T09:42:23.133Z,31.16
2017-06-21T09:43:33.363Z,31.12
2017-06-21T09:44:43.288Z,31.06
2017-06-21T09:45:53.638Z,31.01
2017-06-21T09:47:03.561Z,30.97
2017-06-21T09:48:13.184Z,31.01
2017-06-21T09:49:23.412Z,30.91
2017-06-21T09:50:33.640Z,30.86
2017-06-21T09:51:44.017Z,30.88
2017-06-21T09:52:53.941Z,30.88
2017-06-21T09:54:03.562Z,30.91
2017-06-21T09:55:13.502Z,30.84
2017-06-21T09:56:23.730Z,30.83
2017-06-21T09:57:33.799Z,30.8
2017-06-21T09:58:43.728Z,30.73
2017-06-21T09:59:53.368Z,30.73
2017-06-21T10:01:03.597Z,30.72
2017-06-21T10:02:13.201Z,30.69
2017-06-21T10:03:23.268Z,30.64
2017-06-21T10:04:33.500Z,30.65
2017-06-21T10:05:43.423Z,30.65
2017-06-21T10:06:54.058Z,30.61
2017-06-21T10:08:03.386Z,30.62
2017-06-21T10:09:13.422Z,30.58
2017-06-21T10:10:23.657Z,30.55
2017-06-21T10:11:33.269Z,30.53
2017-06-21T10:12:43.196Z,30.51
2017-06-21T10:13:53.130Z,30.47
2017-06-21T10:15:02.809Z,30.51
2017-06-21T10:16:12.125Z,30.47
2017-06-21T10:17:21.747Z,30.38
2017-06-21T10:18:31.356Z,30.45
2017-06-21T10:19:40.986Z,30.35
2017-06-21T10:20:51.156Z,30.39
2017-06-21T10:22:01.104Z,30.43
2017-06-21T10:23:11.031Z,30.42
2017-06-21T10:24:21.258Z,30.29
2017-06-21T10:25:31.506Z,30.29
2017-06-21T10:26:41.800Z,30.27
2017-06-21T10:27:52.045Z,30.31
2017-06-21T10:29:01.971Z,30.31
2017-06-21T10:30:11.586Z,30.24
2017-06-21T10:31:21.504Z,30.34
2017-06-21T10:32:31.276Z,30.29
2017-06-21T10:33:40.897Z,30.24
2017-06-21T10:34:51.139Z,30.29
2017-06-21T10:36:01.385Z,30.32
2017-06-21T10:37:11.008Z,30.24
2017-06-21T10:38:21.087Z,30.22
2017-06-21T10:39:31.321Z,30.26
2017-06-21T10:40:41.618Z,30.26
2017-06-21T10:41:51.232Z,30.15
2017-06-21T10:43:01.162Z,30.08
2017-06-21T10:44:10.936Z,30.15
2017-06-21T10:45:20.552Z,30.16
2017-06-21T10:46:30.491Z,30.1
2017-06-21T10:47:40.419Z,30.17
2017-06-21T10:48:50.343Z,30.15
2017-06-21T10:50:00.722Z,30.11
2017-06-21T10:51:10.350Z,30.13
2017-06-21T10:52:19.683Z,30.11
2017-06-21T10:53:29.311Z,29.98
2017-06-21T10:54:39.229Z,30.13
2017-06-21T10:55:49.190Z,29.97
2017-06-21T10:56:58.802Z,30.05
2017-06-21T10:58:08.120Z,30.01
2017-06-21T10:59:17.449Z,30.07
2017-06-21T11:00:27.706Z,30.08
2017-06-21T11:01:37.174Z,30.04
2017-06-21T11:02:46.785Z,30.05
2017-06-21T11:03:56.722Z,29.95
2017-06-21T11:05:06.030Z,30.02
2017-06-21T11:06:16.257Z,30.02
2017-06-21T11:07:25.964Z,30
2017-06-21T11:08:35.869Z,30.01
2017-06-21T11:09:45.171Z,29.95
2017-06-21T11:10:55.097Z,29.97
2017-06-21T11:12:04.728Z,30
2017-06-21T11:13:14.975Z,29.95
2017-06-21T11:14:25.206Z,29.97
2017-06-21T11:15:35.120Z,29.94
2017-06-21T11:16:44.733Z,29.95
2017-06-21T11:17:54.960Z,29.95
2017-06-21T11:19:05.190Z,29.9
2017-06-21T11:20:15.445Z,29.89
2017-06-21T11:21:24.762Z,29.95
2017-06-21T11:22:34.683Z,29.86
2017-06-21T11:23:44.901Z,29.89
2017-06-21T11:24:54.221Z,29.89
2017-06-21T11:26:03.524Z,29.95
2017-06-21T11:27:13.756Z,29.87
2017-06-21T11:28:23.385Z,29.94
2017-06-21T11:29:32.991Z,29.94
2017-06-21T11:30:42.095Z,29.9
2017-06-21T11:31:51.705Z,29.95
2017-06-21T11:33:01.623Z,29.92
2017-06-21T11:34:10.930Z,29.9
2017-06-21T11:35:20.865Z,29.85
2017-06-21T11:36:31.151Z,29.83
2017-06-21T11:37:40.756Z,29.83
2017-06-21T11:38:50.064Z,29.83
2017-06-21T11:39:59.373Z,29.86
2017-06-21T11:41:09.284Z,29.83
2017-06-21T11:42:20.364Z,29.87
2017-06-21T11:43:30.297Z,29.8
2017-06-21T11:44:40.267Z,29.8
2017-06-21T11:45:50.210Z,29.8
2017-06-21T11:46:59.547Z,29.74
2017-06-21T11:48:09.533Z,29.78
2017-06-21T11:49:19.467Z,29.82
2017-06-21T11:50:29.716Z,29.8
2017-06-21T11:51:39.971Z,29.79
2017-06-21T11:52:49.601Z,29.8
2017-06-21T11:53:59.336Z,29.83
2017-06-21T11:55:08.957Z,29.82
2017-06-21T11:56:18.889Z,29.8
2017-06-21T11:57:28.517Z,29.83
2017-06-21T11:58:37.829Z,29.78
2017-06-21T11:59:47.301Z,29.8
2017-06-21T12:00:56.917Z,29.78
2017-06-21T12:02:06.533Z,29.78
2017-06-21T12:03:16.481Z,29.74
2017-06-21T12:04:26.126Z,29.82
2017-06-21T12:05:35.588Z,29.83
2017-06-21T12:06:45.546Z,29.76
2017-06-21T12:07:54.560Z,29.79
2017-06-21T12:09:04.168Z,29.76
2017-06-21T12:10:13.774Z,29.85
2017-06-21T12:11:23.229Z,29.8
2017-06-21T12:12:32.856Z,29.82
2017-06-21T12:13:42.472Z,29.79
2017-06-21T12:14:52.088Z,29.8
2017-06-21T12:16:01.715Z,29.79
2017-06-21T12:17:11.386Z,29.76
2017-06-21T12:18:20.717Z,29.71
2017-06-21T12:19:30.340Z,29.83
2017-06-21T12:20:39.358Z,29.76
2017-06-21T12:21:48.997Z,29.8
2017-06-21T12:22:58.691Z,29.82
2017-06-21T12:24:08.018Z,29.8
2017-06-21T12:25:17.657Z,29.8
2017-06-21T12:26:27.296Z,29.7
2017-06-21T12:27:36.613Z,29.79
2017-06-21T12:28:46.567Z,29.83
2017-06-21T12:29:55.577Z,29.67
2017-06-21T12:31:04.912Z,29.78
2017-06-21T12:32:14.869Z,29.73
2017-06-21T12:33:24.507Z,29.7
2017-06-21T12:34:33.966Z,29.7
2017-06-21T12:35:43.584Z,29.71
2017-06-21T12:36:53.206Z,29.8
2017-06-21T12:38:03.121Z,29.73
2017-06-21T12:39:13.034Z,29.78
2017-06-21T12:40:22.659Z,29.7
2017-06-21T12:41:32.906Z,29.78
2017-06-21T12:42:42.543Z,29.73
2017-06-21T12:43:52.466Z,29.76
2017-06-21T12:45:02.409Z,29.73
2017-06-21T12:46:12.731Z,29.73
2017-06-21T12:47:22.648Z,29.78
2017-06-21T12:48:32.259Z,29.74
2017-06-21T12:49:42.483Z,29.7
2017-06-21T12:50:52.715Z,29.7
2017-06-21T12:52:02.482Z,29.71
2017-06-21T12:53:11.803Z,29.71
2017-06-21T12:54:21.800Z,29.7
2017-06-21T12:55:31.424Z,29.71
2017-06-21T12:56:41.045Z,29.7
2017-06-21T12:57:50.391Z,29.76
2017-06-21T12:59:00.022Z,29.74
2017-06-21T13:00:09.656Z,29.73
2017-06-21T13:01:19.285Z,29.74
2017-06-21T13:02:28.592Z,29.7
2017-06-21T13:03:38.876Z,29.71
2017-06-21T13:04:48.190Z,29.67
2017-06-21T13:05:58.112Z,29.71
2017-06-21T13:07:08.037Z,29.65
2017-06-21T13:08:17.973Z,29.71
2017-06-21T13:09:27.742Z,29.7
2017-06-21T13:10:37.369Z,29.74
2017-06-21T13:11:47.292Z,29.7
2017-06-21T13:12:57.512Z,29.73
2017-06-21T13:14:07.456Z,29.74
2017-06-21T13:15:17.533Z,29.7
2017-06-21T13:16:27.159Z,29.7
2017-06-21T13:17:37.075Z,29.73
2017-06-21T13:18:46.690Z,29.7
2017-06-21T13:19:56.304Z,29.7
2017-06-21T13:21:06.699Z,29.73
2017-06-21T13:22:16.316Z,29.68
2017-06-21T13:23:26.536Z,29.68
2017-06-21T13:24:36.457Z,29.68
2017-06-21T13:25:46.395Z,29.7
2017-06-21T13:26:56.329Z,29.68
2017-06-21T13:28:06.241Z,29.67
2017-06-21T13:29:16.479Z,29.71
2017-06-21T13:30:26.733Z,29.68
2017-06-21T13:31:36.956Z,29.74
2017-06-21T13:32:46.879Z,29.71
2017-06-21T13:33:56.808Z,29.68
2017-06-21T13:35:06.123Z,29.7
2017-06-21T13:36:15.766Z,29.67
2017-06-21T13:37:25.677Z,29.73
2017-06-21T13:38:35.353Z,29.67
2017-06-21T13:39:45.783Z,29.73
2017-06-21T13:40:55.112Z,29.67
2017-06-21T13:42:04.410Z,29.74
2017-06-21T13:43:14.640Z,29.74
2017-06-21T13:44:24.963Z,29.73
2017-06-21T13:45:34.906Z,29.74
2017-06-21T13:46:44.536Z,29.82
2017-06-21T13:47:54.760Z,29.73
2017-06-21T13:49:04.681Z,29.78
2017-06-21T13:50:14.755Z,29.73
2017-06-21T13:51:24.686Z,29.78
2017-06-21T13:52:34.618Z,29.83
2017-06-21T13:53:44.542Z,29.78
2017-06-21T13:54:54.772Z,29.7
2017-06-21T13:56:04.822Z,29.78
2017-06-21T13:57:15.055Z,29.74
2017-06-21T13:58:24.692Z,29.78
2017-06-21T13:59:34.627Z,29.74
2017-06-21T14:00:44.552Z,29.71
2017-06-21T14:01:54.628Z,29.76
2017-06-21T14:03:04.567Z,29.74
2017-06-21T14:04:14.203Z,29.71
2017-06-21T14:05:24.140Z,29.68
2017-06-21T14:06:33.138Z,29.78
2017-06-21T14:07:43.217Z,29.79
2017-06-21T14:08:52.844Z,29.79
2017-06-21T14:10:03.092Z,29.73
2017-06-21T14:11:13.034Z,29.8
2017-06-21T14:12:22.651Z,29.8
2017-06-21T14:13:33.032Z,29.76
2017-06-21T14:14:43.261Z,29.83
2017-06-21T14:15:53.497Z,29.78
2017-06-21T14:17:03.726Z,29.79
2017-06-21T14:18:13.668Z,29.8
2017-06-21T14:19:23.429Z,29.79
2017-06-21T14:20:33.357Z,29.73
2017-06-21T14:21:43.272Z,29.78
2017-06-21T14:22:53.503Z,29.79
2017-06-21T14:24:03.445Z,29.78
2017-06-21T14:25:13.065Z,29.79
2017-06-21T14:26:22.679Z,29.68
2017-06-21T14:27:32.320Z,29.78
2017-06-21T14:28:42.268Z,29.73
2017-06-21T14:29:52.225Z,29.76
2017-06-21T14:31:02.627Z,29.83
2017-06-21T14:32:12.552Z,29.82
2017-06-21T14:33:22.796Z,29.76
2017-06-21T14:34:33.024Z,29.83
2017-06-21T14:35:42.963Z,29.83
2017-06-21T14:36:53.075Z,29.8
2017-06-21T14:38:02.716Z,29.82
2017-06-21T14:39:12.333Z,29.82
2017-06-21T14:40:22.359Z,29.76
2017-06-21T14:41:32.001Z,29.76
2017-06-21T14:42:42.283Z,29.82
2017-06-21T14:43:51.965Z,29.79
2017-06-21T14:45:01.608Z,29.79
2017-06-21T14:46:11.854Z,29.82
2017-06-21T14:47:21.482Z,29.83
2017-06-21T14:48:31.209Z,29.83
2017-06-21T14:49:41.148Z,29.87
2017-06-21T14:50:50.760Z,29.86
2017-06-21T14:52:00.397Z,29.86
2017-06-21T14:53:10.325Z,29.85
2017-06-21T14:54:20.115Z,29.85
2017-06-21T14:55:30.033Z,29.85
2017-06-21T14:56:39.659Z,29.85
2017-06-21T14:57:49.592Z,29.87
2017-06-21T14:58:59.867Z,29.83
2017-06-21T15:00:09.606Z,29.87
2017-06-21T15:01:19.552Z,29.87
2017-06-21T15:02:29.807Z,29.8
2017-06-21T15:03:39.440Z,29.76
2017-06-21T15:04:49.373Z,29.86